Time;durP1;ratioP1;P1;durP2;ratioP2;P2;SDS_P1;SDS_P2;PMS_P1;PMS_P2;Temp;Humidity;BMP_temperature;BMP_pressure;BME280_temperature;BME280_humidity;BME280_pressure;Samples;Min_cycle;Max_cycle;Signal;HPM_P1;HPM_P2
2024/01/06 00:00:36;;;;;;;56.67;27.73;;;;;;;4.17;70.71;99165.38;5021145;27;96742;-84
2024/01/06 00:03:02;;;;;;;48.63;26.57;;;;;;;4.06;70.83;99150.91;5017945;27;97682;-84
2024/01/06 00:05:28;;;;;;;57.77;29.27;;;;;;;4.06;70.76;99150.91;5014216;27;100623;-84
2024/01/06 00:07:53;;;;;;;53.67;27.00;;;;;;;4.20;70.80;99167.91;5014806;27;97112;-84
2024/01/06 00:10:18;;;;;;;51.07;27.10;;;;;;;4.25;70.53;99179.03;5030011;27;96766;-85
2024/01/06 00:12:44;;;;;;;53.70;27.17;;;;;;;4.14;70.82;99178.47;5050058;27;97337;-84
2024/01/06 00:15:10;;;;;;;56.30;28.23;;;;;;;4.14;70.90;99175.84;5032836;27;97315;-84
2024/01/06 00:17:36;;;;;;;61.03;29.50;;;;;;;4.03;71.08;99178.72;5020642;27;96956;-84
2024/01/06 00:20:02;;;;;;;58.80;27.33;;;;;;;3.97;71.07;99156.34;5017808;27;96913;-84
2024/01/06 00:22:28;;;;;;;61.40;29.47;;;;;;;4.02;71.16;99161.44;5000328;28;100814;-83
2024/01/06 00:24:53;;;;;;;52.20;28.47;;;;;;;4.21;71.13;99178.25;5000582;27;100789;-84
2024/01/06 00:27:19;;;;;;;54.90;29.47;;;;;;;4.19;70.93;99173.97;5003986;27;96784;-85
2024/01/06 00:29:44;;;;;;;56.07;30.00;;;;;;;4.31;70.60;99177.13;5011660;27;97185;-84
2024/01/06 00:32:10;;;;;;;49.87;28.03;;;;;;;4.44;70.23;99174.19;5033662;27;98172;-84
2024/01/06 00:34:35;;;;;;;58.27;30.07;;;;;;;4.39;70.56;99176.88;5034959;27;97414;-84
2024/01/06 00:37:01;;;;;;;52.93;29.20;;;;;;;4.48;70.09;99162.78;5032890;27;96988;-84
2024/01/06 00:39:26;;;;;;;54.27;30.00;;;;;;;4.41;70.19;99169.91;5029773;27;97074;-84
2024/01/06 00:41:51;;;;;;;57.07;29.63;;;;;;;4.42;69.99;99182.03;5017217;27;98668;-83
2024/01/06 00:44:17;;;;;;;52.20;27.73;;;;;;;4.51;69.76;99175.72;5034381;27;98004;-83
2024/01/06 00:46:43;;;;;;;55.80;27.00;;;;;;;4.49;69.99;99178.34;5014534;28;97372;-85
2024/01/06 00:49:08;;;;;;;58.87;30.20;;;;;;;4.39;69.96;99194.22;5008047;27;96816;-84
2024/01/06 00:51:33;;;;;;;58.40;28.70;;;;;;;4.18;70.07;99170.53;5024742;27;97663;-84
2024/01/06 00:53:59;;;;;;;55.83;29.23;;;;;;;4.38;70.12;99192.53;5018187;27;97293;-84
2024/01/06 00:56:26;;;;;;;60.23;29.00;;;;;;;4.49;69.93;99186.16;5017338;27;96863;-83
2024/01/06 00:58:52;;;;;;;58.53;29.33;;;;;;;4.39;70.15;99194.22;4988598;28;96913;-84
2024/01/06 01:01:17;;;;;;;56.83;29.47;;;;;;;4.36;70.57;99189.13;5008871;27;101198;-84
2024/01/06 01:03:43;;;;;;;54.97;28.77;;;;;;;4.08;71.30;99193.31;5052650;27;98040;-84
2024/01/06 01:06:08;;;;;;;53.13;29.27;;;;;;;4.01;71.23;99202.13;5016921;27;96784;-84
2024/01/06 01:08:34;;;;;;;56.53;28.33;;;;;;;4.15;71.06;99195.72;5005442;27;97647;-84
2024/01/06 01:10:59;;;;;;;57.00;28.23;;;;;;;4.05;71.05;99169.16;5013460;28;100836;-84
2024/01/06 01:13:25;;;;;;;59.00;30.07;;;;;;;4.03;71.34;99184.75;5011295;27;101399;-84
2024/01/06 01:15:51;;;;;;;59.90;29.57;;;;;;;3.99;71.53;99196.13;5033088;27;97211;-83
2024/01/06 01:18:16;;;;;;;58.37;28.20;;;;;;;4.12;71.53;99196.66;5005760;28;96753;-84
2024/01/06 01:20:42;;;;;;;61.53;30.27;;;;;;;3.91;71.85;99205.00;5028841;27;101302;-84
2024/01/06 01:23:08;;;;;;;57.50;28.43;;;;;;;3.86;72.16;99194.72;5016417;27;98326;-83
2024/01/06 01:25:33;;;;;;;54.40;28.87;;;;;;;4.02;71.79;99203.84;5030168;27;98497;-85
2024/01/06 01:27:59;;;;;;;54.77;27.83;;;;;;;4.00;71.36;99203.03;5026098;28;97190;-84
2024/01/06 01:30:25;;;;;;;56.70;29.03;;;;;;;3.97;71.52;99207.44;5025615;27;97960;-83
2024/01/06 01:32:50;;;;;;;60.50;29.20;;;;;;;4.01;71.48;99201.28;5017998;28;97409;-84
2024/01/06 01:35:16;;;;;;;58.37;30.50;;;;;;;4.04;71.36;99183.00;5042989;27;96772;-83
2024/01/06 01:37:41;;;;;;;51.13;28.23;;;;;;;4.19;71.22;99205.13;5027805;27;96914;-84
2024/01/06 01:40:07;;;;;;;54.43;29.40;;;;;;;4.17;71.26;99212.16;5029352;27;98048;-83
2024/01/06 01:42:33;;;;;;;51.40;27.60;;;;;;;4.01;71.47;99204.72;5033957;27;97322;-83
2024/01/06 01:44:59;;;;;;;54.10;28.20;;;;;;;3.92;71.68;99202.34;5013843;28;96815;-84
2024/01/06 01:47:25;;;;;;;55.07;27.07;;;;;;;4.07;71.80;99219.28;5015692;28;96882;-84
2024/01/06 01:49:50;;;;;;;46.30;26.07;;;;;;;4.00;71.55;99218.59;5015771;27;97452;-85
2024/01/06 01:52:16;;;;;;;58.40;30.10;;;;;;;3.86;71.97;99221.53;5033463;27;100854;-84
2024/01/06 01:54:43;;;;;;;56.47;29.60;;;;;;;4.03;71.93;99220.28;5015580;27;96804;-84
2024/01/06 01:57:10;;;;;;;55.53;29.70;;;;;;;4.35;71.09;99213.41;5025449;27;96820;-84
2024/01/06 01:59:36;;;;;;;50.50;27.27;;;;;;;4.13;71.12;99202.69;5027291;27;97356;-83
2024/01/06 02:02:02;;;;;;;52.80;27.53;;;;;;;4.03;71.99;99212.47;5032512;27;97447;-84
2024/01/06 02:04:28;;;;;;;52.00;27.70;;;;;;;4.06;71.95;99196.81;5016794;27;96693;-85
2024/01/06 02:06:53;;;;;;;53.13;26.70;;;;;;;4.11;71.68;99209.69;5016339;27;96998;-84
2024/01/06 02:09:19;;;;;;;51.00;28.07;;;;;;;4.25;71.17;99202.41;5016687;27;98517;-84
2024/01/06 02:11:45;;;;;;;51.43;26.60;;;;;;;4.27;71.01;99201.44;5032821;27;97566;-85
2024/01/06 02:14:10;;;;;;;54.30;29.43;;;;;;;4.00;70.78;99178.81;5044292;27;97104;-83
2024/01/06 02:16:35;;;;;;;51.17;27.97;;;;;;;3.88;71.69;99208.53;5035134;27;97016;-83
2024/01/06 02:19:01;;;;;;;53.73;27.20;;;;;;;3.83;71.73;99205.19;5015576;27;100070;-83
2024/01/06 02:21:28;;;;;;;57.07;29.73;;;;;;;3.85;72.10;99196.47;5015805;27;101124;-83
2024/01/06 02:23:53;;;;;;;65.80;31.93;;;;;;;3.58;72.75;99200.59;5017037;27;96748;-84
2024/01/06 02:26:19;;;;;;;52.83;28.60;;;;;;;3.68;72.33;99202.97;5007381;28;96807;-83
2024/01/06 02:28:47;;;;;;;55.77;30.27;;;;;;;3.61;72.15;99184.09;5031840;27;100162;-84
2024/01/06 02:31:13;;;;;;;52.73;29.40;;;;;;;3.61;72.36;99190.13;5032892;27;97444;-83
2024/01/06 02:33:39;;;;;;;54.93;29.50;;;;;;;3.74;72.43;99187.22;5032781;27;96743;-84
2024/01/06 02:36:04;;;;;;;56.77;32.13;;;;;;;3.65;72.94;99190.06;5050015;27;97763;-85
2024/01/06 02:38:30;;;;;;;64.20;31.97;;;;;;;3.68;73.02;99195.19;5014751;27;100675;-83
2024/01/06 02:40:55;;;;;;;59.43;31.40;;;;;;;3.64;72.58;99181.44;5011776;27;99873;-83
2024/01/06 02:43:22;;;;;;;61.73;32.30;;;;;;;3.53;72.73;99183.41;5030141;27;97212;-84
2024/01/06 02:45:48;;;;;;;56.23;29.47;;;;;;;3.76;72.80;99201.03;5015601;27;96801;-83
2024/01/06 02:48:13;;;;;;;62.17;31.07;;;;;;;4.04;71.63;99212.47;5015239;27;101303;-84
2024/01/06 02:50:39;;;;;;;58.23;29.07;;;;;;;4.18;71.40;99213.84;5050548;27;97817;-84
2024/01/06 02:53:04;;;;;;;57.43;29.33;;;;;;;3.95;71.73;99206.63;5028304;27;97110;-84
2024/01/06 02:55:30;;;;;;;54.07;29.33;;;;;;;3.89;71.82;99214.56;5015261;27;96819;-84
2024/01/06 02:57:55;;;;;;;53.63;29.30;;;;;;;4.02;71.33;99214.22;5036780;27;101316;-85
2024/01/06 03:00:21;;;;;;;53.47;29.67;;;;;;;4.08;70.92;99210.63;5014806;27;101172;-84
2024/01/06 03:02:46;;;;;;;48.50;29.20;;;;;;;3.88;71.19;99211.13;5015462;27;96894;-83
2024/01/06 03:05:12;;;;;;;55.37;29.93;;;;;;;3.61;71.89;99203.09;5018590;27;96961;-83
2024/01/06 03:07:37;;;;;;;56.53;30.00;;;;;;;3.58;72.00;99197.16;5039980;27;98491;-84
2024/01/06 03:10:03;;;;;;;47.93;28.20;;;;;;;3.58;72.33;99200.59;5012378;28;97656;-84
2024/01/06 03:12:29;;;;;;;49.27;27.97;;;;;;;3.84;71.52;99196.53;5009516;27;97438;-85
2024/01/06 03:14:54;;;;;;;53.27;30.57;;;;;;;3.82;71.45;99188.75;5050726;27;96956;-84
2024/01/06 03:17:20;;;;;;;55.03;28.10;;;;;;;3.75;71.70;99188.94;5015621;27;97408;-85
2024/01/06 03:19:45;;;;;;;55.03;28.67;;;;;;;3.81;71.33;99194.84;5032654;27;98057;-84
2024/01/06 03:22:11;;;;;;;48.37;26.67;;;;;;;3.89;71.02;99206.78;5015055;27;97091;-85
2024/01/06 03:24:36;;;;;;;47.73;26.87;;;;;;;3.59;71.26;99178.94;5015664;27;96985;-85
2024/01/06 03:27:02;;;;;;;52.50;27.93;;;;;;;3.72;71.37;99197.63;5014307;27;99984;-85
2024/01/06 03:29:28;;;;;;;51.03;26.50;;;;;;;3.86;70.90;99220.69;4990157;28;100634;-84
2024/01/06 03:31:53;;;;;;;53.30;27.73;;;;;;;3.98;70.51;99202.19;5019874;27;96707;-84
2024/01/06 03:34:18;;;;;;;49.13;27.90;;;;;;;3.92;70.12;99199.75;5017521;27;96890;-84
2024/01/06 03:36:44;;;;;;;45.63;25.30;;;;;;;4.10;70.14;99214.03;5030083;27;97988;-85
2024/01/06 03:39:10;;;;;;;44.30;25.40;;;;;;;3.93;70.14;99219.66;5025089;27;97624;-85
2024/01/06 03:41:35;;;;;;;51.13;28.50;;;;;;;3.74;71.23;99232.22;5015418;27;97256;-84
2024/01/06 03:44:01;;;;;;;51.40;28.37;;;;;;;3.85;70.80;99231.97;5027847;27;97074;-84
2024/01/06 03:46:27;;;;;;;45.77;25.50;;;;;;;3.86;70.68;99241.44;5014712;27;100936;-85
2024/01/06 03:48:52;;;;;;;45.77;25.27;;;;;;;3.88;70.82;99244.03;5014491;27;101098;-85
2024/01/06 03:51:18;;;;;;;49.20;26.27;;;;;;;3.89;70.75;99241.38;5045501;27;97151;-84
2024/01/06 03:53:43;;;;;;;48.83;27.03;;;;;;;3.99;70.36;99235.09;4997922;27;97330;-84
2024/01/06 03:56:09;;;;;;;52.37;27.60;;;;;;;3.96;69.90;99229.97;5014634;27;99901;-84
2024/01/06 03:58:34;;;;;;;45.67;26.17;;;;;;;3.88;70.60;99233.63;5011736;28;100774;-84
2024/01/06 04:01:00;;;;;;;49.87;27.10;;;;;;;3.78;70.33;99202.72;5012487;27;96760;-84
2024/01/06 04:03:26;;;;;;;43.33;25.60;;;;;;;3.94;70.60;99223.09;5012053;28;97233;-84
2024/01/06 04:05:51;;;;;;;46.13;26.63;;;;;;;3.98;70.36;99237.69;5001590;27;99924;-85
2024/01/06 04:08:17;;;;;;;47.57;26.97;;;;;;;4.14;69.97;99235.59;5015732;27;100881;-84
2024/01/06 04:10:43;;;;;;;48.80;26.57;;;;;;;3.84;70.08;99228.53;5029116;27;96728;-84
2024/01/06 04:13:09;;;;;;;50.67;27.83;;;;;;;3.76;70.56;99222.66;5001326;27;96734;-84
2024/01/06 04:15:34;;;;;;;50.20;27.00;;;;;;;3.67;70.91;99232.41;5028180;27;97304;-84
2024/01/06 04:18:04;;;;;;;45.93;26.43;;;;;;;3.85;70.91;99237.16;5035255;27;97296;-84
2024/01/06 04:20:30;;;;;;;47.37;25.00;;;;;;;3.79;70.61;99232.13;5018086;27;96753;-84
2024/01/06 04:22:55;;;;;;;46.17;25.63;;;;;;;3.96;70.68;99242.94;5018077;27;96902;-85
2024/01/06 04:25:21;;;;;;;45.73;27.37;;;;;;;3.79;71.15;99245.09;5017812;27;101395;-84
2024/01/06 04:27:48;;;;;;;49.50;27.30;;;;;;;3.74;71.15;99236.56;5017977;27;101272;-85
2024/01/06 04:30:14;;;;;;;53.57;28.83;;;;;;;3.66;71.00;99247.09;5023327;27;96964;-84
2024/01/06 04:32:40;;;;;;;48.17;26.47;;;;;;;3.77;71.18;99241.69;5006537;28;96789;-82
2024/01/06 04:35:06;;;;;;;48.17;25.73;;;;;;;3.89;71.00;99230.16;5051383;27;97341;-84
2024/01/06 04:37:31;;;;;;;50.23;26.40;;;;;;;3.78;70.90;99252.03;5014442;28;97304;-84
2024/01/06 04:39:57;;;;;;;49.97;27.27;;;;;;;3.67;71.12;99254.03;5033106;27;97108;-85
2024/01/06 04:42:23;;;;;;;54.50;27.17;;;;;;;3.89;70.90;99248.31;5014636;27;97238;-84
2024/01/06 04:44:49;;;;;;;45.53;27.30;;;;;;;3.95;69.97;99235.19;5027892;27;100891;-84
2024/01/06 04:47:15;;;;;;;48.20;26.70;;;;;;;3.89;70.21;99236.19;5029993;27;98452;-83
2024/01/06 04:49:40;;;;;;;47.13;26.90;;;;;;;4.15;69.87;99264.13;5029448;27;96743;-85
2024/01/06 04:52:05;;;;;;;45.50;27.43;;;;;;;4.01;70.12;99253.22;5017155;27;96949;-84
2024/01/06 04:54:31;;;;;;;50.13;27.97;;;;;;;3.70;70.14;99240.13;5017397;27;101326;-84
2024/01/06 04:56:58;;;;;;;48.17;26.43;;;;;;;3.71;70.70;99268.63;5000178;27;101602;-83
2024/01/06 04:59:23;;;;;;;51.70;29.37;;;;;;;3.79;70.78;99263.28;5017020;27;96810;-85
2024/01/06 05:01:51;;;;;;;48.63;28.23;;;;;;;3.85;70.92;99266.56;5033236;27;97256;-84
2024/01/06 05:04:16;;;;;;;51.03;29.20;;;;;;;4.00;70.06;99274.88;5032839;27;101627;-84
2024/01/06 05:06:42;;;;;;;50.97;27.13;;;;;;;3.97;70.09;99247.25;4995541;28;99656;-85
2024/01/06 05:09:07;;;;;;;53.03;28.77;;;;;;;3.97;69.99;99281.00;5031006;27;96899;-85
2024/01/06 05:11:33;;;;;;;52.73;27.87;;;;;;;4.02;70.59;99286.94;5032859;27;96784;-85
2024/01/06 05:13:58;;;;;;;45.70;26.70;;;;;;;3.98;70.12;99271.47;5013343;28;97975;-85
2024/01/06 05:16:24;;;;;;;50.87;29.27;;;;;;;3.85;69.63;99265.72;5048100;27;97285;-85
2024/01/06 05:18:49;;;;;;;50.43;30.00;;;;;;;3.75;70.05;99265.09;5016952;27;96688;-83
2024/01/06 05:21:15;;;;;;;58.57;31.53;;;;;;;3.95;70.00;99289.72;5028493;27;97119;-85
2024/01/06 05:23:40;;;;;;;55.87;30.13;;;;;;;3.99;70.10;99287.03;4997090;27;100222;-84
2024/01/06 05:26:06;;;;;;;54.93;29.83;;;;;;;3.83;69.52;99294.28;5017034;27;100725;-84
2024/01/06 05:28:31;;;;;;;53.23;29.93;;;;;;;3.77;70.26;99294.44;5016568;27;97310;-84
2024/01/06 05:30:57;;;;;;;53.50;29.07;;;;;;;3.81;70.63;99296.09;5052053;27;97155;-85
2024/01/06 05:33:22;;;;;;;57.53;29.23;;;;;;;3.56;71.07;99308.75;5025260;27;97428;-84
2024/01/06 05:35:48;;;;;;;48.60;28.97;;;;;;;3.59;71.17;99310.44;5016833;27;99988;-84
2024/01/06 05:38:14;;;;;;;56.37;30.17;;;;;;;3.34;71.41;99286.72;5026603;27;96706;-85
2024/01/06 05:40:39;;;;;;;55.67;30.90;;;;;;;3.53;70.56;99303.63;5016726;27;96785;-85
2024/01/06 05:43:05;;;;;;;54.70;30.40;;;;;;;3.27;71.69;99303.31;5017035;27;101021;-85
2024/01/06 05:45:31;;;;;;;56.90;29.40;;;;;;;3.34;71.86;99313.53;5016826;27;98151;-85
2024/01/06 05:47:57;;;;;;;52.70;30.20;;;;;;;3.29;71.73;99325.75;5027899;27;96806;-84
2024/01/06 05:50:22;;;;;;;56.80;32.43;;;;;;;3.29;72.30;99320.56;5017126;27;96867;-84
2024/01/06 05:52:48;;;;;;;53.13;29.60;;;;;;;3.25;72.13;99331.03;5049432;27;98091;-84
2024/01/06 05:55:15;;;;;;;53.63;29.07;;;;;;;3.12;72.42;99328.69;5017517;27;97379;-84
2024/01/06 05:57:41;;;;;;;51.73;30.40;;;;;;;3.05;72.95;99329.66;5013410;27;96967;-85
2024/01/06 06:00:11;;;;;;;56.43;30.03;;;;;;;2.79;73.39;99312.00;5033322;27;96671;-84
2024/01/06 06:02:39;;;;;;;54.75;30.23;;;;;;;3.04;73.12;99327.13;5020082;27;97766;-84
2024/01/06 06:05:05;;;;;;;47.23;27.50;;;;;;;3.16;72.67;99301.78;5017214;27;97962;-84
2024/01/06 06:07:31;;;;;;;52.77;27.03;;;;;;;3.24;72.41;99335.38;5015890;27;97141;-86
2024/01/06 06:09:56;;;;;;;54.57;29.47;;;;;;;3.27;72.11;99319.75;5013742;28;96726;-85
2024/01/06 06:12:22;;;;;;;48.87;26.87;;;;;;;3.25;72.12;99329.28;5016678;27;97854;-84
2024/01/06 06:14:47;;;;;;;50.30;27.30;;;;;;;3.14;72.24;99326.03;5016470;27;101181;-85
2024/01/06 06:17:13;;;;;;;51.00;28.33;;;;;;;3.21;72.18;99309.50;5027318;27;97601;-84
2024/01/06 06:19:38;;;;;;;48.80;27.23;;;;;;;3.46;71.38;99338.41;5013647;27;96759;-84
2024/01/06 06:22:04;;;;;;;48.70;27.20;;;;;;;3.42;71.77;99330.69;5047425;27;97989;-84
2024/01/06 06:24:29;;;;;;;53.57;26.57;;;;;;;3.31;71.52;99330.91;5050381;27;97999;-85
2024/01/06 06:26:55;;;;;;;49.83;27.47;;;;;;;3.44;71.76;99331.53;5037773;27;96639;-85
2024/01/06 06:29:20;;;;;;;41.00;24.63;;;;;;;3.52;71.01;99338.25;5016493;27;97331;-85
2024/01/06 06:31:46;;;;;;;41.70;23.67;;;;;;;3.25;70.86;99320.66;5013320;27;101426;-85
2024/01/06 06:34:12;;;;;;;43.07;23.70;;;;;;;3.21;71.12;99342.38;5015733;27;101784;-85
2024/01/06 06:36:38;;;;;;;35.93;21.53;;;;;;;3.36;71.02;99355.88;5024858;27;96728;-84
2024/01/06 06:39:04;;;;;;;41.70;24.27;;;;;;;3.08;71.40;99339.97;5029753;27;96726;-84
2024/01/06 06:41:30;;;;;;;36.50;22.53;;;;;;;3.23;71.28;99354.41;5007190;27;101388;-85
2024/01/06 06:43:57;;;;;;;42.43;23.67;;;;;;;3.58;70.80;99371.88;5014731;27;99025;-85
2024/01/06 06:46:23;;;;;;;39.63;22.40;;;;;;;3.48;70.40;99369.47;5010287;27;96768;-85
2024/01/06 06:48:49;;;;;;;39.20;22.27;;;;;;;3.42;70.32;99369.63;5016107;27;96966;-84
2024/01/06 06:51:14;;;;;;;44.20;24.00;;;;;;;3.19;70.72;99355.34;5011958;27;101433;-84
2024/01/06 06:53:40;;;;;;;40.30;24.30;;;;;;;3.41;70.44;99358.38;5011544;28;100566;-85
2024/01/06 06:56:06;;;;;;;43.47;23.43;;;;;;;3.52;70.17;99392.75;5008864;28;97102;-86
2024/01/06 06:58:32;;;;;;;39.33;22.90;;;;;;;3.38;69.87;99399.97;4994376;28;96794;-84
2024/01/06 07:00:57;;;;;;;39.00;22.97;;;;;;;3.43;70.29;99395.50;5026356;27;98023;-85
2024/01/06 07:03:23;;;;;;;41.90;24.37;;;;;;;3.39;70.10;99384.34;5009187;28;100178;-85
2024/01/06 07:05:48;;;;;;;38.17;22.40;;;;;;;3.51;70.02;99405.75;5015947;27;96900;-85
2024/01/06 07:08:15;;;;;;;41.40;23.50;;;;;;;3.32;70.03;99382.75;5023475;27;96940;-85
2024/01/06 07:10:40;;;;;;;43.67;23.40;;;;;;;3.46;69.83;99381.63;5034312;27;97830;-84
2024/01/06 07:13:06;;;;;;;40.27;22.40;;;;;;;3.63;69.32;99403.75;5012325;28;101487;-85
2024/01/06 07:15:32;;;;;;;37.87;22.47;;;;;;;3.73;69.29;99388.88;5023079;27;96907;-85
2024/01/06 07:17:57;;;;;;;39.10;20.97;;;;;;;3.53;68.75;99365.06;5010728;27;96838;-85
2024/01/06 07:20:23;;;;;;;39.30;21.90;;;;;;;3.50;68.87;99371.16;5021360;28;101421;-84
2024/01/06 07:22:48;;;;;;;37.70;22.80;;;;;;;3.56;68.88;99399.59;5025605;28;97510;-86
2024/01/06 07:25:14;;;;;;;40.53;22.43;;;;;;;3.36;69.57;99401.72;5016668;27;96774;-84
2024/01/06 07:27:39;;;;;;;35.83;21.03;;;;;;;3.46;69.57;99392.00;5011912;28;96926;-84
2024/01/06 07:30:07;;;;;;;38.13;21.37;;;;;;;3.54;69.06;99403.09;5007808;28;102010;-85
2024/01/06 07:32:33;;;;;;;35.90;22.00;;;;;;;3.31;69.72;99391.41;4996490;28;98427;-85
2024/01/06 07:34:58;;;;;;;38.03;21.30;;;;;;;3.43;70.15;99412.81;5012229;28;96830;-84
2024/01/06 07:37:24;;;;;;;44.63;22.23;;;;;;;3.52;69.44;99410.91;5027977;27;96939;-84
2024/01/06 07:39:49;;;;;;;36.87;21.53;;;;;;;3.54;68.95;99419.50;5030196;28;97345;-85
2024/01/06 07:42:15;;;;;;;35.33;20.30;;;;;;;3.71;68.96;99423.53;4994462;28;101261;-85
2024/01/06 07:44:40;;;;;;;33.60;20.83;;;;;;;3.68;68.52;99426.19;5011265;28;97143;-86
2024/01/06 07:47:06;;;;;;;36.03;20.47;;;;;;;3.51;68.64;99427.34;5026790;27;97010;-84
2024/01/06 07:49:32;;;;;;;36.43;19.57;;;;;;;3.50;68.47;99438.63;5016845;28;97508;-85
2024/01/06 07:51:57;;;;;;;36.70;20.70;;;;;;;3.59;68.46;99429.81;5014797;28;101398;-85
2024/01/06 07:54:22;;;;;;;35.50;18.53;;;;;;;3.67;68.36;99438.31;5019876;28;96908;-85
2024/01/06 07:56:48;;;;;;;33.60;20.03;;;;;;;3.69;67.96;99426.13;5015022;28;96885;-85
2024/01/06 07:59:14;;;;;;;37.10;20.87;;;;;;;3.60;68.02;99434.09;5032344;28;97532;-85
2024/01/06 08:01:39;;;;;;;38.43;20.70;;;;;;;3.61;67.56;99439.28;5014436;28;101170;-84
2024/01/06 08:04:05;;;;;;;34.43;20.73;;;;;;;3.54;67.58;99435.09;5032574;28;96875;-84
2024/01/06 08:06:30;;;;;;;35.97;21.20;;;;;;;3.60;67.48;99457.47;5027275;28;97491;-84
2024/01/06 08:08:55;;;;;;;36.20;21.37;;;;;;;3.68;67.53;99465.97;5011279;28;101699;-84
2024/01/06 08:11:21;;;;;;;34.43;21.40;;;;;;;3.52;67.72;99457.63;5011992;28;100926;-84
2024/01/06 08:13:47;;;;;;;36.27;21.60;;;;;;;3.57;67.67;99453.19;5024876;28;97366;-85
2024/01/06 08:16:13;;;;;;;34.47;21.53;;;;;;;3.48;67.72;99460.31;5018317;27;96996;-84
2024/01/06 08:18:38;;;;;;;36.77;20.13;;;;;;;3.51;67.80;99465.44;5028679;28;97509;-85
2024/01/06 08:21:04;;;;;;;37.20;21.57;;;;;;;3.71;67.65;99465.91;5013996;28;100971;-85
2024/01/06 08:23:29;;;;;;;34.80;20.40;;;;;;;3.54;67.52;99471.41;5026492;28;97837;-85
2024/01/06 08:25:55;;;;;;;35.90;21.73;;;;;;;3.75;67.90;99474.47;5027890;27;97131;-84
2024/01/06 08:28:23;;;;;;;38.70;21.90;;;;;;;3.83;67.79;99475.19;5013330;28;101433;-85
2024/01/06 08:30:49;;;;;;;37.23;21.23;;;;;;;3.93;67.77;99475.88;5016700;28;97375;-85
2024/01/06 08:33:14;;;;;;;34.53;19.97;;;;;;;4.09;67.63;99475.50;5018241;28;96740;-85
2024/01/06 08:35:40;;;;;;;35.57;20.37;;;;;;;4.05;67.33;99478.22;5010827;28;97142;-84
2024/01/06 08:38:09;;;;;;;39.03;22.63;;;;;;;3.98;67.15;99482.66;5009086;28;101282;-84
2024/01/06 08:40:35;;;;;;;40.73;23.07;;;;;;;4.17;67.22;99483.16;5001032;28;100947;-84
2024/01/06 08:43:01;;;;;;;43.67;23.77;;;;;;;4.18;67.53;99497.84;5022077;28;97479;-84
2024/01/06 08:45:26;;;;;;;37.60;22.27;;;;;;;4.17;67.46;99479.69;5030975;28;96883;-85
2024/01/06 08:47:52;;;;;;;41.50;23.73;;;;;;;4.40;67.25;99507.78;5020579;28;101677;-85
2024/01/06 08:50:17;;;;;;;36.67;21.37;;;;;;;4.51;67.45;99505.81;4996338;28;100478;-84
2024/01/06 08:52:43;;;;;;;39.60;22.53;;;;;;;4.21;67.86;99512.50;5022879;27;96795;-84
2024/01/06 08:55:08;;;;;;;37.50;21.63;;;;;;;4.13;67.63;99512.69;5004492;28;96818;-85
2024/01/06 08:57:34;;;;;;;40.33;22.03;;;;;;;4.29;67.94;99514.06;5030389;27;97392;-84
2024/01/06 08:59:59;;;;;;;39.67;21.17;;;;;;;4.44;67.72;99519.81;5033768;27;97248;-85
2024/01/06 09:02:25;;;;;;;39.17;21.70;;;;;;;4.45;67.53;99517.19;5016038;27;97424;-84
2024/01/06 09:04:50;;;;;;;32.70;20.10;;;;;;;4.38;67.51;99507.81;5013982;28;97381;-83
2024/01/06 09:07:17;;;;;;;37.53;21.67;;;;;;;4.43;67.75;99512.91;5020829;27;97531;-84
2024/01/06 09:09:43;;;;;;;32.63;19.93;;;;;;;4.52;67.88;99503.16;5025566;27;97860;-84
2024/01/06 09:12:09;;;;;;;36.37;21.17;;;;;;;4.60;67.47;99507.34;5031634;27;96709;-84
2024/01/06 09:14:34;;;;;;;35.77;20.83;;;;;;;4.84;67.25;99531.94;5017789;27;96716;-85
2024/01/06 09:17:00;;;;;;;34.30;20.43;;;;;;;4.62;67.77;99541.94;5028268;27;97266;-84
2024/01/06 09:19:28;;;;;;;33.77;20.67;;;;;;;4.27;67.66;99528.81;5028999;27;97467;-85
2024/01/06 09:21:54;;;;;;;41.30;20.70;;;;;;;4.44;67.28;99540.59;5027159;27;97251;-85
2024/01/06 09:24:20;;;;;;;35.93;19.93;;;;;;;4.25;67.55;99541.00;5016245;27;96844;-84
2024/01/06 09:26:46;;;;;;;34.60;19.97;;;;;;;4.13;67.25;99538.66;5011041;27;100729;-85
2024/01/06 09:29:12;;;;;;;32.90;19.73;;;;;;;3.94;67.44;99551.13;5012343;28;101471;-84
2024/01/06 09:31:37;;;;;;;31.90;18.40;;;;;;;3.74;68.01;99553.25;5040988;27;96749;-84
2024/01/06 09:34:03;;;;;;;36.37;21.20;;;;;;;3.92;67.83;99549.44;5005809;28;96953;-85
2024/01/06 09:36:30;;;;;;;34.33;19.57;;;;;;;3.84;68.67;99539.22;4998979;27;101759;-85
2024/01/06 09:38:56;;;;;;;32.77;19.07;;;;;;;4.19;67.95;99548.94;5019587;27;98468;-84
2024/01/06 09:41:21;;;;;;;35.67;20.00;;;;;;;4.11;68.23;99534.38;5020664;27;97281;-84
2024/01/06 09:43:47;;;;;;;36.73;19.57;;;;;;;4.25;68.10;99550.53;5019186;27;97473;-82
2024/01/06 09:46:13;;;;;;;36.17;20.80;;;;;;;4.28;68.24;99559.13;5030192;27;97440;-83
2024/01/06 09:48:43;;;;;;;38.13;20.97;;;;;;;4.03;68.74;99555.28;5029794;27;100432;-85
2024/01/06 09:51:12;;;;;;;40.37;22.30;;;;;;;3.84;69.40;99526.25;4997685;27;97278;-83
2024/01/06 09:53:43;;;;;;;35.90;20.50;;;;;;;4.02;68.76;99551.00;5036883;27;98099;-83
2024/01/06 09:56:09;;;;;;;39.67;21.27;;;;;;;3.86;68.61;99560.81;5014773;27;101378;-83
2024/01/06 09:58:36;;;;;;;39.13;20.37;;;;;;;3.92;68.98;99549.44;5013804;27;98691;-84
2024/01/06 10:01:02;;;;;;;35.83;21.57;;;;;;;4.04;69.22;99544.91;5034933;27;97355;-82
2024/01/06 10:03:28;;;;;;;36.60;21.17;;;;;;;4.05;69.47;99558.72;5027870;27;96837;-83
2024/01/06 10:05:53;;;;;;;35.70;20.80;;;;;;;3.98;69.61;99555.38;5013806;27;97651;-83
2024/01/06 10:08:19;;;;;;;39.00;21.17;;;;;;;3.93;69.75;99559.81;4999576;27;101656;-83
2024/01/06 10:10:45;;;;;;;36.47;20.67;;;;;;;3.90;69.49;99540.81;5019173;27;97123;-84
2024/01/06 10:13:10;;;;;;;39.00;22.83;;;;;;;3.94;69.71;99537.31;5015274;27;97246;-83
2024/01/06 10:15:36;;;;;;;38.33;22.57;;;;;;;4.18;69.70;99567.13;5027898;27;97782;-86
2024/01/06 10:18:03;;;;;;;37.43;21.80;;;;;;;4.44;69.68;99564.00;5026331;27;101126;-82
2024/01/06 10:20:28;;;;;;;39.00;23.83;;;;;;;4.03;69.06;99576.06;5014710;27;97825;-82
2024/01/06 10:22:54;;;;;;;38.37;21.90;;;;;;;3.79;69.53;99580.00;5012947;27;96903;-84
2024/01/06 10:25:23;;;;;;;40.23;22.57;;;;;;;3.94;70.20;99584.03;5031894;27;97336;-82
2024/01/06 10:27:49;;;;;;;39.60;23.57;;;;;;;3.63;70.18;99567.28;5032050;27;98123;-84
2024/01/06 10:30:18;;;;;;;37.93;22.43;;;;;;;3.77;70.50;99580.00;5013432;27;97351;-81
2024/01/06 10:32:43;;;;;;;40.13;22.93;;;;;;;3.85;70.25;99583.31;5027758;27;97435;-80
2024/01/06 10:35:09;;;;;;;38.70;22.97;;;;;;;3.86;70.06;99582.44;5014949;27;101457;-81
2024/01/06 10:37:36;;;;;;;33.90;20.33;;;;;;;3.80;69.92;99581.69;4997859;27;100810;-85
2024/01/06 10:40:12;;;;;;;35.20;21.10;;;;;;;3.78;69.77;99560.09;5014461;27;97079;-81
2024/01/06 10:42:39;;;;;;;36.50;22.27;;;;;;;4.02;69.71;99584.75;5009494;27;96895;-84
2024/01/06 10:45:09;;;;;;;35.13;22.33;;;;;;;3.77;69.09;99555.78;5024484;28;97958;-90
2024/01/06 10:47:43;;;;;;;37.30;24.23;;;;;;;3.70;69.79;99586.22;5026839;27;98398;-89
2024/01/06 10:50:08;;;;;;;34.07;21.97;;;;;;;3.59;69.16;99559.56;4999264;27;97310;-89
2024/01/06 10:52:37;;;;;;;36.00;22.90;;;;;;;3.60;69.25;99571.66;5046769;27;97974;-89
2024/01/06 10:55:04;;;;;;;33.00;20.87;;;;;;;3.40;69.76;99578.06;5021160;27;98094;-88
2024/01/06 10:57:33;;;;;;;34.43;21.27;;;;;;;3.27;69.93;99549.75;5012474;27;101094;-89
2024/01/06 10:59:59;;;;;;;32.97;21.33;;;;;;;3.28;69.55;99541.06;5010053;28;97157;-89
2024/01/06 11:02:26;;;;;;;34.63;20.57;;;;;;;3.40;69.94;99561.63;5016500;27;97446;-89
2024/01/06 11:04:52;;;;;;;36.77;22.83;;;;;;;3.39;69.64;99562.50;5013267;27;101145;-89
2024/01/06 11:07:19;;;;;;;32.20;20.80;;;;;;;3.43;70.04;99571.09;5017483;27;98103;-88
2024/01/06 11:10:02;;;;;;;34.00;21.40;;;;;;;3.43;69.91;99558.97;5019948;27;96803;-89
2024/01/06 11:12:28;;;;;;;29.93;19.60;;;;;;;3.63;69.71;99548.25;5029543;27;96971;-89
2024/01/06 11:14:54;;;;;;;33.57;21.07;;;;;;;3.62;68.99;99544.81;5011110;28;102053;-88
2024/01/06 11:17:58;;;;;;;33.57;21.67;;;;;;;3.84;69.32;99555.66;5022798;27;97918;-89